Time;durP1;ratioP1;P1;durP2;ratioP2;P2;SDS_P1;SDS_P2;PMS_P1;PMS_P2;Temp;Humidity;BMP_temperature;BMP_pressure;BME280_temperature;BME280_humidity;BME280_pressure;Samples;Min_cycle;Max_cycle;Signal;HPM_P1;HPM_P2
2022/03/08 00:01:24;;;;;;;11.93;6.50;;;;;;;1.38;89.59;96766.34;6164718;23;20174;-96
2022/03/08 00:04:09;;;;;;;10.17;6.73;;;;;;;1.69;90.37;96825.41;6191354;23;20181;-95
2022/03/08 00:06:51;;;;;;;11.57;6.10;;;;;;;1.59;90.56;96812.78;6143797;23;20219;-96
2022/03/08 00:09:36;;;;;;;11.97;7.30;;;;;;;1.64;90.20;96802.50;6191557;23;20166;-96
2022/03/08 00:12:18;;;;;;;13.23;7.53;;;;;;;2.04;90.23;96876.78;6169513;23;20173;-96
2022/03/08 00:14:59;;;;;;;13.60;7.40;;;;;;;2.00;91.22;96893.03;6166802;23;20177;-96
2022/03/08 00:17:48;;;;;;;13.47;7.20;;;;;;;1.46;90.85;96790.03;6169730;23;20264;-95
2022/03/08 00:20:25;;;;;;;16.73;8.27;;;;;;;1.73;89.85;96814.28;6191147;23;20180;-95
2022/03/08 00:23:07;;;;;;;13.33;7.37;;;;;;;1.74;90.61;96826.19;6170726;23;20169;-96
2022/03/08 00:26:15;;;;;;;11.93;7.40;;;;;;;2.14;89.82;96878.34;6170522;23;20228;-95
2022/03/08 00:28:58;;;;;;;12.10;7.00;;;;;;;2.04;89.75;96861.47;6166021;23;20172;-95
2022/03/08 00:31:30;;;;;;;12.23;7.20;;;;;;;1.64;89.74;96816.13;6189131;23;20181;-95
2022/03/08 00:34:12;;;;;;;11.97;6.87;;;;;;;1.81;90.61;96853.31;6149068;23;20237;-95
2022/03/08 00:36:49;;;;;;;13.23;7.83;;;;;;;1.76;90.52;96852.53;6167605;23;20205;-96
2022/03/08 00:39:33;;;;;;;12.67;7.00;;;;;;;1.97;90.58;96886.25;6172050;23;20287;-96
2022/03/08 00:42:11;;;;;;;10.13;6.73;;;;;;;1.71;90.69;96818.59;6187918;23;20260;-96
2022/03/08 00:44:46;;;;;;;11.60;6.90;;;;;;;2.00;89.93;96878.53;6189059;23;20174;-96
2022/03/08 00:47:28;;;;;;;10.50;6.53;;;;;;;1.76;90.23;96860.19;6157801;22;20169;-95
2022/03/08 00:50:00;;;;;;;10.53;6.20;;;;;;;1.90;90.34;96876.13;6227660;22;20695;-96
2022/03/08 00:53:00;;;;;;;9.93;6.00;;;;;;;1.87;90.34;96853.22;6220079;22;20169;-94
2022/03/08 00:56:06;;;;;;;10.73;6.00;;;;;;;1.40;91.21;96811.34;6193170;22;20195;-95
2022/03/08 00:58:52;;;;;;;11.60;6.50;;;;;;;1.91;90.63;96867.63;6219426;22;20174;-96
2022/03/08 01:01:54;;;;;;;14.43;7.47;;;;;;;1.56;91.48;96857.91;6241979;22;20200;-96
2022/03/08 01:04:41;;;;;;;9.23;5.63;;;;;;;1.54;91.71;96839.25;6238686;22;20166;-96
2022/03/08 01:07:23;;;;;;;10.80;5.90;;;;;;;1.52;92.04;96831.63;6183378;22;20199;-96
2022/03/08 01:10:10;;;;;;;11.33;6.60;;;;;;;1.63;91.05;96834.84;6274374;22;20171;-95
2022/03/08 01:12:54;;;;;;;10.83;6.37;;;;;;;1.15;91.87;96776.88;6215550;22;20178;-94
2022/03/08 01:15:37;;;;;;;11.83;6.57;;;;;;;1.27;91.61;96801.34;6201784;22;20251;-96
2022/03/08 01:18:19;;;;;;;13.70;6.63;;;;;;;1.41;91.13;96815.59;6203979;22;20179;-95
2022/03/08 01:21:02;;;;;;;10.13;6.43;;;;;;;1.36;92.25;96814.81;6256865;22;20217;-95
2022/03/08 01:23:33;;;;;;;11.97;6.70;;;;;;;1.64;91.50;96846.75;6248824;22;20195;-96
2022/03/08 01:26:17;;;;;;;13.20;6.87;;;;;;;1.29;91.27;96808.13;6244220;22;20164;-95
2022/03/08 01:29:00;;;;;;;10.07;6.07;;;;;;;1.46;91.34;96841.88;6216653;22;20168;-95
2022/03/08 01:31:30;;;;;;;11.83;7.03;;;;;;;1.65;91.75;96850.13;6234699;22;20251;-95
2022/03/08 01:34:16;;;;;;;12.03;6.43;;;;;;;1.11;91.58;96807.50;6233698;22;20233;-94
2022/03/08 01:36:45;;;;;;;10.87;6.17;;;;;;;1.46;93.00;96867.38;6205437;22;20215;-94
2022/03/08 01:39:12;;;;;;;14.63;7.23;;;;;;;1.26;91.94;96812.41;6202284;22;20173;-96
2022/03/08 01:41:55;;;;;;;11.67;6.57;;;;;;;1.49;91.42;96841.00;6200227;22;20164;-95
2022/03/08 01:44:25;;;;;;;10.77;6.53;;;;;;;1.52;90.96;96830.75;6174330;22;20508;-96
2022/03/08 01:46:57;;;;;;;9.80;6.23;;;;;;;1.30;90.46;96801.31;6223624;22;20245;-94
2022/03/08 01:49:34;;;;;;;10.30;6.50;;;;;;;1.34;89.47;96780.81;6226058;22;20200;-95
2022/03/08 01:52:18;;;;;;;9.83;5.93;;;;;;;1.73;90.34;96873.00;6223371;22;20175;-95
2022/03/08 01:55:02;;;;;;;8.70;5.87;;;;;;;1.45;89.71;96835.09;6199597;22;20168;-96
2022/03/08 01:57:45;;;;;;;10.93;6.40;;;;;;;1.67;89.76;96855.22;6199642;22;20267;-96
2022/03/08 02:00:29;;;;;;;8.77;5.53;;;;;;;1.46;89.00;96826.56;6203472;22;20769;-96
2022/03/08 02:03:01;;;;;;;7.47;4.67;;;;;;;1.63;89.33;96852.69;6173278;22;20168;-95
2022/03/08 02:05:31;;;;;;;10.00;5.60;;;;;;;1.43;88.78;96816.41;6196939;22;20172;-96
2022/03/08 02:08:13;;;;;;;7.93;5.10;;;;;;;1.73;88.74;96870.44;6223311;22;20229;-95
2022/03/08 02:10:42;;;;;;;10.40;6.03;;;;;;;1.67;89.36;96875.63;6195786;22;20172;-95
2022/03/08 02:13:09;;;;;;;8.77;6.17;;;;;;;1.56;89.55;96865.56;6170906;22;20164;-95
2022/03/08 02:15:37;;;;;;;7.37;4.83;;;;;;;1.60;89.56;96855.31;6195403;22;20255;-96
2022/03/08 02:18:08;;;;;;;9.33;5.53;;;;;;;1.28;88.64;96820.88;6222259;22;20173;-95
2022/03/08 02:20:37;;;;;;;9.53;6.47;;;;;;;0.79;89.82;96739.09;6196755;22;20235;-96
2022/03/08 02:23:18;;;;;;;9.53;5.77;;;;;;;1.28;90.03;96805.56;6223727;22;20179;-95
2022/03/08 02:25:47;;;;;;;7.47;5.17;;;;;;;1.53;90.08;96840.09;6219695;22;20527;-95
2022/03/08 02:28:18;;;;;;;7.53;5.57;;;;;;;1.68;90.01;96857.75;6172551;22;20176;-96
2022/03/08 02:30:59;;;;;;;9.07;5.83;;;;;;;1.80;89.45;96887.34;6195071;22;20259;-96
2022/03/08 02:33:31;;;;;;;8.57;5.53;;;;;;;0.73;90.26;96751.91;6171837;22;20187;-96
2022/03/08 02:36:12;;;;;;;9.77;5.67;;;;;;;1.00;89.53;96782.16;6197735;22;20776;-95
2022/03/08 02:38:53;;;;;;;8.27;5.33;;;;;;;1.46;89.81;96867.38;6203063;22;20172;-96
2022/03/08 02:41:24;;;;;;;6.43;4.50;;;;;;;1.37;90.03;96861.56;6196485;22;20172;-95
2022/03/08 02:44:06;;;;;;;5.30;4.37;;;;;;;1.60;89.71;96902.94;6223841;22;20250;-96
2022/03/08 02:46:46;;;;;;;6.57;4.50;;;;;;;1.25;89.52;96857.47;6196487;22;20172;-94
2022/03/08 02:49:15;;;;;;;6.83;4.83;;;;;;;0.78;90.20;96783.28;6198113;22;20201;-95
2022/03/08 02:51:43;;;;;;;7.37;5.37;;;;;;;1.49;90.34;96905.63;6196917;22;20207;-95
2022/03/08 02:54:14;;;;;;;7.37;5.27;;;;;;;1.23;90.99;96871.97;6222786;22;20184;-94
2022/03/08 02:56:44;;;;;;;17.20;10.47;;;;;;;1.30;90.51;96886.31;6214384;22;20192;-95
2022/03/08 02:59:25;;;;;;;8.47;6.27;;;;;;;0.81;90.48;96801.94;6179587;22;20176;-95
2022/03/08 03:01:54;;;;;;;9.43;5.97;;;;;;;0.54;90.56;96758.94;6248220;22;20241;-96
2022/03/08 03:04:37;;;;;;;10.07;6.07;;;;;;;1.02;90.38;96859.47;6226728;22;20246;-96
2022/03/08 03:07:15;;;;;;;7.70;5.00;;;;;;;0.75;90.13;96818.97;6231176;22;20168;-94
2022/03/08 03:09:47;;;;;;;8.30;5.30;;;;;;;1.30;90.60;96896.50;6181934;22;20189;-95
2022/03/08 03:12:24;;;;;;;7.70;4.80;;;;;;;1.32;90.15;96899.06;6223419;22;20351;-96
2022/03/08 03:15:09;;;;;;;9.20;5.43;;;;;;;0.95;90.78;96841.72;6203871;22;20204;-96
2022/03/08 03:17:50;;;;;;;8.40;5.30;;;;;;;0.98;90.65;96824.66;6196327;22;20200;-95
2022/03/08 03:20:31;;;;;;;9.57;5.50;;;;;;;1.19;90.49;96872.84;6198804;22;20188;-95
2022/03/08 03:23:00;;;;;;;7.47;5.53;;;;;;;1.53;90.72;96902.16;6222548;22;20175;-95
2022/03/08 03:25:40;;;;;;;7.33;5.53;;;;;;;0.93;90.44;96808.56;6175176;22;20169;-95
2022/03/08 03:28:15;;;;;;;8.50;5.80;;;;;;;0.76;89.94;96790.09;6198144;22;20178;-95
2022/03/08 03:30:56;;;;;;;10.27;6.10;;;;;;;0.69;90.97;96816.50;6196951;22;20238;-95
2022/03/08 03:33:32;;;;;;;11.00;6.57;;;;;;;1.03;91.05;96878.16;6200770;22;20258;-96
2022/03/08 03:36:02;;;;;;;9.83;6.30;;;;;;;1.29;91.24;96910.13;6223538;22;20195;-95
2022/03/08 03:38:31;;;;;;;9.47;6.80;;;;;;;0.49;91.82;96770.03;6171842;22;20175;-95
2022/03/08 03:40:59;;;;;;;10.27;6.53;;;;;;;1.26;92.20;96905.06;6201701;22;20187;-95
2022/03/08 03:43:26;;;;;;;10.63;6.97;;;;;;;1.09;91.37;96873.84;6196103;22;20171;-95
2022/03/08 03:45:57;;;;;;;9.90;6.60;;;;;;;1.18;91.53;96880.50;6197770;22;20735;-95
2022/03/08 03:48:25;;;;;;;8.40;5.70;;;;;;;0.71;91.28;96795.25;6171998;22;20204;-95
2022/03/08 03:51:02;;;;;;;10.53;6.73;;;;;;;1.30;90.78;96901.59;6221077;22;20168;-96
2022/03/08 03:53:31;;;;;;;10.43;6.40;;;;;;;1.06;91.23;96881.50;6221592;22;20202;-95
2022/03/08 03:56:05;;;;;;;8.27;5.73;;;;;;;0.90;91.57;96846.84;6196708;22;20179;-96
2022/03/08 03:58:49;;;;;;;8.30;5.57;;;;;;;1.21;90.61;96901.72;6227058;22;20164;-96
2022/03/08 04:01:19;;;;;;;8.30;5.33;;;;;;;0.61;91.43;96810.66;6197577;22;20179;-95
2022/03/08 04:03:46;;;;;;;9.17;5.50;;;;;;;0.69;91.52;96819.91;6199083;22;20183;-96
2022/03/08 04:06:15;;;;;;;8.97;5.37;;;;;;;0.82;91.76;96830.81;6223793;22;20172;-94
2022/03/08 04:08:43;;;;;;;9.37;5.83;;;;;;;0.78;90.79;96809.59;6221563;22;20176;-95
2022/03/08 04:11:12;;;;;;;11.33;6.77;;;;;;;0.97;90.49;96829.78;6199936;22;20168;-94
2022/03/08 04:13:52;;;;;;;11.43;7.10;;;;;;;0.90;90.78;96826.47;6228461;22;20187;-96
2022/03/08 04:16:24;;;;;;;10.13;6.40;;;;;;;1.29;90.54;96888.88;6203854;22;20235;-95
2022/03/08 04:19:29;;;;;;;10.73;6.63;;;;;;;0.38;91.01;96703.09;6205703;22;20175;-96
2022/03/08 04:22:56;;;;;;;9.97;6.77;;;;;;;1.44;90.05;96870.84;6289284;22;20164;-96
2022/03/08 04:26:54;;;;;;;13.73;8.57;;;;;;;1.59;89.61;96889.34;6256183;22;20267;-96
2022/03/08 04:30:11;;;;;;;11.10;8.00;;;;;;;1.59;90.46;96879.13;6265860;22;20220;-95
2022/03/08 04:33:28;;;;;;;12.30;7.47;;;;;;;1.27;90.44;96826.84;6260109;22;20188;-94
2022/03/08 04:36:19;;;;;;;11.80;6.53;;;;;;;0.82;90.10;96750.06;6215869;22;20172;-95
2022/03/08 04:38:59;;;;;;;11.60;7.43;;;;;;;1.12;89.26;96814.28;6235463;22;20168;-95
2022/03/08 04:42:09;;;;;;;9.27;6.67;;;;;;;1.29;90.15;96843.81;6226709;22;20161;-96
2022/03/08 04:45:32;;;;;;;8.97;6.57;;;;;;;1.45;89.60;96870.81;6244887;22;20236;-95
2022/03/08 04:48:06;;;;;;;10.97;6.87;;;;;;;1.47;89.39;96873.34;6213590;22;20200;-96
2022/03/08 04:51:56;;;;;;;9.63;6.80;;;;;;;1.45;89.93;96878.47;6275827;22;20168;-96
2022/03/08 04:55:45;;;;;;;12.77;8.10;;;;;;;1.42;89.44;96873.38;6149057;23;20178;-96
2022/03/08 04:59:07;;;;;;;10.20;6.37;;;;;;;0.81;90.82;96811.25;6142542;23;20254;-96
2022/03/08 05:09:22;;;;;;;12.77;7.80;;;;;;;1.15;91.29;96883.09;6218951;22;20212;-95
2022/03/08 05:12:03;;;;;;;14.63;9.30;;;;;;;1.50;91.25;96899.69;6220701;22;20235;-95
2022/03/08 05:14:41;;;;;;;13.87;8.70;;;;;;;0.88;91.01;96830.72;6232428;22;20176;-95
2022/03/08 05:17:13;;;;;;;12.90;8.57;;;;;;;1.06;90.75;96861.09;6235030;22;20224;-95
2022/03/08 05:20:28;;;;;;;12.40;8.07;;;;;;;1.49;91.63;96912.44;6265131;22;20172;-95
2022/03/08 05:24:03;;;;;;;11.03;7.37;;;;;;;0.96;90.57;96856.13;6278098;22;20179;-91
2022/03/08 05:26:37;;;;;;;13.70;8.23;;;;;;;1.06;89.98;96878.09;6208564;22;20195;-96
2022/03/08 05:29:11;;;;;;;12.60;7.70;;;;;;;1.18;91.00;96914.50;6240519;22;20196;-95
2022/03/08 05:32:06;;;;;;;9.93;6.67;;;;;;;0.93;90.36;96868.91;6269299;22;20198;-94
2022/03/08 05:34:53;;;;;;;11.40;6.53;;;;;;;1.01;90.90;96920.66;6270396;22;20175;-93
2022/03/08 05:37:54;;;;;;;10.80;7.40;;;;;;;0.51;91.85;96849.81;6243339;22;20243;-94
2022/03/08 05:41:02;;;;;;;27.43;12.77;;;;;;;1.20;91.67;96947.63;6250256;22;20176;-94
2022/03/08 05:44:29;;;;;;;34.57;17.87;;;;;;;1.31;91.21;96938.16;6248300;22;20464;-94
2022/03/08 05:47:08;;;;;;;24.27;13.63;;;;;;;1.11;91.47;96912.06;6239468;22;20187;-93
2022/03/08 05:50:14;;;;;;;16.43;10.77;;;;;;;1.11;90.96;96923.09;6223687;22;20191;-93
2022/03/08 05:52:52;;;;;;;18.20;10.27;;;;;;;0.35;91.63;96843.19;6260083;22;20169;-94
2022/03/08 05:55:38;;;;;;;14.23;9.40;;;;;;;0.85;92.50;96891.94;6219391;22;20227;-94
2022/03/08 05:58:30;;;;;;;21.50;13.47;;;;;;;1.22;92.01;96941.66;6225246;22;20207;-95
2022/03/08 06:01:10;;;;;;;17.40;10.17;;;;;;;1.15;91.54;96926.44;6222833;22;20179;-95
2022/03/08 06:04:08;;;;;;;22.27;12.83;;;;;;;1.05;91.20;96940.16;6255284;22;20178;-95
2022/03/08 06:07:17;;;;;;;13.70;8.43;;;;;;;0.63;93.44;96959.25;6296843;22;20183;-94
2022/03/08 06:09:48;;;;;;;16.80;9.30;;;;;;;0.64;93.63;96954.13;6211946;22;20192;-94
2022/03/08 06:12:29;;;;;;;15.20;8.17;;;;;;;0.49;94.39;96931.34;6217540;23;20187;-94
2022/03/08 06:15:32;;;;;;;15.43;8.57;;;;;;;0.93;94.49;96961.50;6254574;23;20255;-94
2022/03/08 06:18:19;;;;;;;15.00;8.33;;;;;;;-0.03;92.99;96824.00;6234881;23;20223;-95
2022/03/08 06:21:42;;;;;;;12.73;8.23;;;;;;;0.31;94.57;96900.09;6252861;23;20177;-94
2022/03/08 06:24:28;;;;;;;15.37;8.70;;;;;;;0.44;93.72;96899.97;6253510;23;20227;-95
2022/03/08 06:27:04;;;;;;;18.13;10.63;;;;;;;0.61;94.59;96949.06;6207358;23;20173;-94
2022/03/08 06:29:55;;;;;;;16.77;10.00;;;;;;;0.23;93.17;96889.13;6247760;23;20187;-94
2022/03/08 06:32:40;;;;;;;12.50;8.17;;;;;;;0.76;93.51;96976.13;6258071;23;20204;-95
2022/03/08 06:35:19;;;;;;;13.87;8.70;;;;;;;0.88;93.02;96942.88;6265298;23;20169;-94
2022/03/08 06:38:12;;;;;;;9.07;6.30;;;;;;;0.26;91.60;96848.34;6257213;23;20200;-95
2022/03/08 06:40:52;;;;;;;11.03;6.20;;;;;;;0.97;90.47;96978.47;6236369;23;20173;-94
2022/03/08 06:43:39;;;;;;;12.10;8.33;;;;;;;0.61;89.07;96874.34;6234349;23;20674;-94
2022/03/08 06:46:19;;;;;;;14.67;7.97;;;;;;;0.67;88.99;96889.56;6234748;23;20181;-94
2022/03/08 06:49:05;;;;;;;11.40;6.70;;;;;;;0.95;88.73;96944.50;6228446;23;20243;-94
2022/03/08 06:52:00;;;;;;;7.53;5.33;;;;;;;1.00;88.61;96965.69;6258766;23;20698;-95
2022/03/08 06:54:37;;;;;;;8.77;6.07;;;;;;;1.18;87.84;96990.16;6258534;23;20183;-94
2022/03/08 06:57:29;;;;;;;11.63;6.90;;;;;;;0.95;88.23;96939.41;6234096;23;20193;-95
2022/03/08 07:00:05;;;;;;;17.07;9.23;;;;;;;1.33;88.33;96998.50;6209750;23;20173;-94
2022/03/08 07:03:11;;;;;;;12.60;7.40;;;;;;;1.23;87.48;96973.97;6250788;23;20233;-94
2022/03/08 07:05:59;;;;;;;9.03;6.07;;;;;;;1.52;86.88;96992.34;6260887;23;20199;-93
2022/03/08 07:08:53;;;;;;;16.93;9.60;;;;;;;1.41;85.71;96930.38;6276596;22;20189;-93
2022/03/08 07:11:57;;;;;;;9.93;7.17;;;;;;;1.69;85.80;96988.75;6258380;22;20248;-92
2022/03/08 07:14:44;;;;;;;13.53;8.63;;;;;;;1.83;86.70;96980.06;6248501;22;20160;-94
2022/03/08 07:17:48;;;;;;;13.00;8.40;;;;;;;1.76;85.04;96911.22;6258328;22;20203;-94
2022/03/08 07:20:56;;;;;;;12.70;9.00;;;;;;;2.25;84.57;96983.72;6278122;22;20169;-94
2022/03/08 07:23:43;;;;;;;15.10;9.80;;;;;;;2.10;84.20;96935.44;6243582;22;20285;-94
2022/03/08 07:26:51;;;;;;;18.20;12.80;;;;;;;2.36;83.30;96953.75;6270347;22;20183;-94
2022/03/08 07:29:50;;;;;;;9.27;6.63;;;;;;;2.25;82.75;96912.19;6241231;22;20227;-94
2022/03/08 07:33:00;;;;;;;11.10;8.07;;;;;;;1.08;83.09;96821.13;6260729;22;20195;-94
2022/03/08 07:36:22;;;;;;;9.27;6.37;;;;;;;1.84;83.83;96948.53;6273436;22;20174;-94
2022/03/08 07:39:31;;;;;;;13.07;7.77;;;;;;;2.50;85.05;96969.72;6294040;22;20251;-94
2022/03/08 07:42:51;;;;;;;11.73;7.80;;;;;;;2.36;82.88;96921.41;6269343;22;20172;-95
2022/03/08 07:46:04;;;;;;;11.57;7.40;;;;;;;2.90;83.58;96968.22;6246696;22;20169;-94
2022/03/08 07:49:31;;;;;;;9.00;6.40;;;;;;;2.92;81.32;96963.94;6255147;22;20206;-95
2022/03/08 07:53:03;;;;;;;12.93;8.47;;;;;;;2.43;82.21;96865.94;6249129;23;20173;-95
2022/03/08 07:55:56;;;;;;;16.83;9.20;;;;;;;2.46;82.23;96863.31;6207814;23;20173;-94
2022/03/08 07:58:59;;;;;;;13.80;8.73;;;;;;;3.19;82.27;96971.09;6252944;23;20232;-93
2022/03/08 08:02:12;;;;;;;15.17;9.87;;;;;;;3.33;81.84;96911.16;6226886;23;20192;-94
2022/03/08 08:05:01;;;;;;;14.70;9.43;;;;;;;3.54;79.76;96932.06;6213538;23;20173;-94
2022/03/08 08:07:56;;;;;;;10.87;7.57;;;;;;;3.32;79.18;96886.44;6207013;23;20263;-94
2022/03/08 08:10:54;;;;;;;10.67;8.30;;;;;;;3.72;78.81;96920.59;6182642;23;20173;-94
2022/03/08 08:13:50;;;;;;;11.17;7.53;;;;;;;4.13;77.60;96933.34;6230506;23;20166;-95
2022/03/08 08:17:24;;;;;;;9.67;7.00;;;;;;;4.03;75.29;96885.75;6217203;23;20217;-95
2022/03/08 08:20:04;;;;;;;13.40;7.93;;;;;;;4.48;75.79;96953.03;6217624;23;20291;-95
2022/03/08 08:23:17;;;;;;;13.03;8.17;;;;;;;3.75;74.48;96847.09;6171388;23;20175;-94
2022/03/08 08:27:02;;;;;;;9.57;6.87;;;;;;;3.94;74.71;96888.50;6166146;23;20171;-95
2022/03/08 08:30:33;;;;;;;11.80;7.17;;;;;;;3.58;74.61;96850.91;6173992;23;20194;-95
2022/03/08 08:34:09;;;;;;;12.87;8.53;;;;;;;4.20;75.98;96951.97;6183910;23;20207;-94
2022/03/08 08:37:24;;;;;;;15.13;10.53;;;;;;;4.36;76.75;96950.75;6178839;23;20195;-94
2022/03/08 08:40:37;;;;;;;9.37;6.60;;;;;;;3.48;74.24;96867.34;6207832;23;20260;-95
2022/03/08 08:44:13;;;;;;;12.80;8.47;;;;;;;4.07;75.66;96944.56;6154741;23;20172;-94
2022/03/08 08:48:16;;;;;;;12.67;9.63;;;;;;;3.00;76.75;96762.59;6175510;23;20172;-95
2022/03/08 08:51:32;;;;;;;11.33;7.80;;;;;;;4.42;76.65;96948.03;6132792;23;20215;-96
2022/03/08 08:54:58;;;;;;;11.90;8.33;;;;;;;3.98;76.08;96864.50;6149385;23;20176;-96
2022/03/08 08:58:00;;;;;;;12.67;9.30;;;;;;;4.23;74.69;96900.66;6140415;23;20203;-96
2022/03/08 09:01:19;;;;;;;15.40;9.30;;;;;;;4.33;73.98;96887.59;6194925;23;20221;-96
2022/03/08 09:04:25;;;;;;;12.40;8.37;;;;;;;4.36;74.04;96890.09;6160018;23;20190;-95
2022/03/08 09:07:46;;;;;;;13.37;8.43;;;;;;;4.05;72.48;96871.19;6149670;23;20182;-95
2022/03/08 09:10:53;;;;;;;11.90;8.30;;;;;;;4.31;72.80;96888.53;6175599;23;20172;-96
2022/03/08 09:14:25;;;;;;;12.87;9.23;;;;;;;3.99;73.84;96833.75;6120471;23;20192;-95
2022/03/08 09:17:31;;;;;;;13.60;9.23;;;;;;;4.12;74.14;96863.31;6088537;23;20208;-95
2022/03/08 09:20:15;;;;;;;13.23;8.93;;;;;;;3.60;74.21;96808.19;6142904;23;20173;-93
2022/03/08 09:23:00;;;;;;;12.63;9.03;;;;;;;4.05;74.60;96876.31;6092902;23;20241;-95
2022/03/08 09:25:51;;;;;;;17.80;11.00;;;;;;;2.96;77.93;96881.16;6166486;23;20182;-95
2022/03/08 09:29:20;;;;;;;17.37;10.77;;;;;;;3.42;78.86;96939.94;6167155;23;20175;-95
2022/03/08 09:33:02;;;;;;;16.90;9.47;;;;;;;3.43;74.34;96904.97;6141890;23;20266;-94
2022/03/08 09:35:53;;;;;;;13.17;8.93;;;;;;;3.40;74.66;96875.16;6112659;23;20176;-95
2022/03/08 09:39:41;;;;;;;12.10;8.70;;;;;;;3.87;74.66;96940.75;6127127;23;20218;-96
2022/03/08 09:43:14;;;;;;;9.77;6.43;;;;;;;3.83;70.98;96946.81;6149743;23;20183;-95
2022/03/08 09:46:34;;;;;;;7.33;4.83;;;;;;;2.88;68.37;96813.13;6233570;23;20174;-95
2022/03/08 09:50:01;;;;;;;11.67;7.20;;;;;;;3.99;71.39;96948.16;6136061;23;20184;-94
2022/03/08 09:53:17;;;;;;;7.67;5.93;;;;;;;3.60;68.93;96831.22;6080494;23;20294;-95
2022/03/08 09:56:08;;;;;;;7.10;5.57;;;;;;;3.58;69.22;96856.03;6055246;23;20178;-95
2022/03/08 09:59:09;;;;;;;5.43;4.93;;;;;;;3.89;69.65;96946.69;6053578;23;20181;-96
2022/03/08 10:02:22;;;;;;;8.63;5.17;;;;;;;3.20;68.04;96816.72;6030008;23;20191;-96
2022/03/08 10:05:45;;;;;;;6.87;5.07;;;;;;;3.92;69.57;96939.78;6129208;23;20236;-95
2022/03/08 10:09:00;;;;;;;7.43;5.67;;;;;;;3.28;68.57;96814.00;6128504;23;20255;-96
2022/03/08 10:12:30;;;;;;;6.53;5.87;;;;;;;3.50;70.20;96933.00;6125058;23;20192;-96
2022/03/08 10:15:20;;;;;;;6.90;4.90;;;;;;;2.93;70.53;96894.00;6124826;23;20159;-95
2022/03/08 10:18:04;;;;;;;8.00;5.73;;;;;;;2.62;71.67;96844.28;6124832;23;20220;-96
2022/03/08 10:21:34;;;;;;;6.97;5.67;;;;;;;3.24;71.91;96948.84;6122010;23;20194;-95
2022/03/08 10:24:39;;;;;;;10.47;6.90;;;;;;;3.46;70.48;96915.16;6152178;23;20172;-96
2022/03/08 10:28:21;;;;;;;6.33;4.90;;;;;;;2.67;68.05;96813.53;6147819;23;20189;-96
2022/03/08 10:31:14;;;;;;;5.93;4.90;;;;;;;3.09;68.30;96913.28;6132379;23;20170;-95
2022/03/08 10:34:17;;;;;;;6.17;4.70;;;;;;;2.78;67.90;96792.00;6200358;23;20199;-96
2022/03/08 10:37:19;;;;;;;6.53;5.03;;;;;;;3.63;66.41;96887.47;6259731;23;20197;-95
2022/03/08 10:40:32;;;;;;;7.50;5.17;;;;;;;3.43;66.83;96851.22;6253804;23;20162;-93
2022/03/08 10:44:04;;;;;;;6.57;4.47;;;;;;;3.82;64.13;96952.81;6258116;23;20169;-94
2022/03/08 10:47:36;;;;;;;5.93;4.93;;;;;;;3.62;65.42;96926.78;6257830;23;20177;-96
2022/03/08 10:50:34;;;;;;;7.97;5.43;;;;;;;3.84;65.47;96944.22;6211579;23;20172;-95
2022/03/08 10:53:25;;;;;;;7.37;5.23;;;;;;;4.15;65.70;96944.38;6256173;23;20220;-96
2022/03/08 10:56:12;;;;;;;9.17;5.60;;;;;;;3.66;64.89;96856.69;6234458;23;20180;-96
2022/03/08 10:59:21;;;;;;;10.67;6.17;;;;;;;4.39;63.78;96920.75;6244544;23;20173;-96
2022/03/08 11:02:21;;;;;;;7.00;5.03;;;;;;;3.83;62.63;96875.94;6247322;23;20563;-95
2022/03/08 11:05:13;;;;;;;10.60;6.50;;;;;;;2.87;65.06;96791.81;6235130;23;20264;-95
2022/03/08 11:07:49;;;;;;;7.03;5.57;;;;;;;3.44;64.32;96869.13;6215745;22;20218;-95
2022/03/08 11:10:21;;;;;;;7.47;5.40;;;;;;;3.51;64.57;96886.03;6222076;23;20178;-96
2022/03/08 11:12:52;;;;;;;7.87;6.00;;;;;;;4.09;63.66;96963.31;6177596;23;20273;-95
2022/03/08 11:15:38;;;;;;;11.50;7.30;;;;;;;3.20;65.14;96878.13;6183322;23;20174;-96
2022/03/08 11:18:23;;;;;;;9.70;5.60;;;;;;;3.18;65.03;96890.09;6185549;23;20225;-95
2022/03/08 11:21:00;;;;;;;9.73;6.67;;;;;;;3.62;65.79;96914.81;6232450;22;20166;-95
2022/03/08 11:23:33;;;;;;;9.90;6.77;;;;;;;4.17;65.41;96952.88;6163710;23;20171;-95
2022/03/08 11:26:22;;;;;;;9.70;7.57;;;;;;;3.71;65.17;96830.09;6166106;23;20572;-95
2022/03/08 11:29:22;;;;;;;8.73;6.00;;;;;;;4.08;62.47;96881.38;6227971;23;20174;-94
2022/03/08 11:31:55;;;;;;;8.33;6.27;;;;;;;3.90;64.15;96856.16;6180072;23;20180;-95
2022/03/08 11:34:56;;;;;;;11.10;6.83;;;;;;;3.96;64.04;96922.59;6207368;23;20197;-95
2022/03/08 11:37:52;;;;;;;11.87;6.87;;;;;;;3.80;65.33;96960.53;6184431;23;20611;-95
2022/03/08 11:41:10;;;;;;;10.33;7.07;;;;;;;3.92;66.34;96952.59;6159524;23;20190;-95
2022/03/08 11:44:02;;;;;;;11.10;7.77;;;;;;;3.60;66.17;96864.50;6215075;23;20181;-95
2022/03/08 11:47:34;;;;;;;10.67;7.10;;;;;;;3.10;65.15;96792.22;6207270;23;20233;-95
2022/03/08 11:51:07;;;;;;;9.67;6.17;;;;;;;3.66;64.73;96941.19;6233985;23;20176;-95
2022/03/08 11:54:32;;;;;;;11.83;7.83;;;;;;;3.77;65.32;96947.75;6234398;23;20170;-95
2022/03/08 11:58:08;;;;;;;10.73;6.87;;;;;;;3.86;64.22;96946.75;6220081;23;20240;-95
2022/03/08 12:01:30;;;;;;;15.03;8.77;;;;;;;3.70;65.40;96924.88;6160193;23;20175;-95
2022/03/08 12:05:05;;;;;;;11.57;6.90;;;;;;;3.80;63.66;96952.84;6188696;23;20169;-95
2022/03/08 12:08:29;;;;;;;15.07;8.90;;;;;;;2.91;64.76;96826.69;6210875;23;20545;-95
2022/03/08 12:11:41;;;;;;;12.83;8.57;;;;;;;3.61;64.45;96910.56;6227046;23;20188;-95
2022/03/08 12:14:53;;;;;;;16.07;9.60;;;;;;;3.60;63.18;96879.88;6257124;23;20169;-96
2022/03/08 12:18:28;;;;;;;13.73;9.20;;;;;;;3.73;64.70;96940.22;6257837;22;20201;-96
2022/03/08 12:21:25;;;;;;;11.80;8.00;;;;;;;3.61;64.29;96932.75;6254185;23;20209;-96
2022/03/08 12:24:48;;;;;;;15.13;8.17;;;;;;;3.84;63.93;96939.09;6232630;23;20182;-96
2022/03/08 12:28:45;;;;;;;14.63;9.10;;;;;;;3.66;64.48;96936.06;6262094;23;20159;-95
2022/03/08 12:32:04;;;;;;;13.60;9.00;;;;;;;2.75;63.95;96801.44;6262851;23;20176;-95
2022/03/08 12:35:43;;;;;;;12.30;8.43;;;;;;;3.51;65.11;96934.66;6262437;23;20193;-96
2022/03/08 12:39:26;;;;;;;16.13;9.67;;;;;;;3.43;66.00;96933.13;6257120;23;20347;-96
2022/03/08 12:42:58;;;;;;;16.07;9.90;;;;;;;2.59;66.29;96813.69;6260051;23;20159;-93
2022/03/08 12:46:40;;;;;;;21.27;10.37;;;;;;;2.45;66.09;96785.00;6224675;23;20169;-94
2022/03/08 12:49:18;;;;;;;14.47;9.90;;;;;;;3.50;65.91;96943.22;6232224;23;20169;-94
2022/03/08 12:52:02;;;;;;;19.20;11.07;;;;;;;3.38;65.78;96922.16;6229365;23;20169;-96
2022/03/08 12:54:52;;;;;;;16.73;10.27;;;;;;;3.65;65.75;96942.91;6241669;23;20161;-95
2022/03/08 12:57:45;;;;;;;15.47;9.73;;;;;;;3.11;64.06;96837.38;6233419;23;20196;-95
2022/03/08 13:00:38;;;;;;;16.47;9.60;;;;;;;3.28;63.53;96845.56;6239068;22;20169;-94
2022/03/08 13:04:32;;;;;;;10.57;7.73;;;;;;;3.77;61.08;96931.59;6257443;23;20178;-94
2022/03/08 13:07:51;;;;;;;16.17;9.60;;;;;;;3.53;63.17;96842.47;6234550;23;20220;-94
2022/03/08 13:10:39;;;;;;;12.77;7.13;;;;;;;3.25;59.85;96789.34;6234835;23;20235;-95
2022/03/08 13:13:44;;;;;;;10.57;6.87;;;;;;;3.47;59.40;96829.81;6216844;23;20200;-96
2022/03/08 13:16:27;;;;;;;11.63;7.60;;;;;;;3.79;59.16;96879.44;6209016;23;20174;-96
2022/03/08 13:19:30;;;;;;;13.10;7.90;;;;;;;3.79;58.66;96871.75;6234483;23;20208;-95
2022/03/08 13:23:26;;;;;;;14.67;9.17;;;;;;;4.05;57.23;96881.44;6258862;23;20299;-95
2022/03/08 13:35:59;;;;;;;16.37;10.87;;;;;;;3.81;61.47;96916.09;6234154;22;20265;-94
2022/03/08 13:39:08;;;;;;;18.67;10.63;;;;;;;3.04;60.19;96764.22;6233287;22;20185;-95
2022/03/08 13:42:17;;;;;;;17.03;10.37;;;;;;;3.71;60.80;96917.16;6139328;23;20182;-95
2022/03/08 13:45:10;;;;;;;16.43;10.07;;;;;;;3.30;60.94;96859.16;6130665;23;20250;-96
2022/03/08 13:48:44;;;;;;;18.80;9.87;;;;;;;3.49;59.74;96889.47;6177612;23;20172;-96
2022/03/08 13:51:59;;;;;;;20.57;11.77;;;;;;;3.72;60.69;96920.59;6136909;23;20182;-96
2022/03/08 13:55:16;;;;;;;17.83;10.77;;;;;;;2.89;61.26;96756.00;6168124;23;20254;-96
2022/03/08 13:58:25;;;;;;;20.20;11.90;;;;;;;3.47;61.98;96866.50;6141600;23;20203;-94
2022/03/08 14:01:27;;;;;;;18.33;11.03;;;;;;;3.73;61.44;96889.00;6143267;23;20176;-95
2022/03/08 14:04:52;;;;;;;19.37;11.00;;;;;;;3.97;60.00;96911.50;6091392;23;20437;-95
2022/03/08 14:09:20;;;;;;;22.10;11.13;;;;;;;3.87;60.65;96916.00;6031999;23;20189;-95